createdAt,value
2019-02-24T00:02:12.858Z,11.43
2019-02-24T00:04:41.885Z,11.47
2019-02-24T00:07:10.684Z,10.47
2019-02-24T00:09:39.546Z,10.53
2019-02-24T00:12:08.469Z,10.73
2019-02-24T00:14:37.350Z,11.23
2019-02-24T00:17:06.289Z,10.40
2019-02-24T00:19:35.196Z,10.97
2019-02-24T00:22:04.020Z,11.00
2019-02-24T00:24:32.953Z,10.70
2019-02-24T00:27:01.795Z,10.67
2019-02-24T00:29:30.828Z,10.57
2019-02-24T00:31:59.685Z,11.40
2019-02-24T00:34:28.458Z,10.50
2019-02-24T00:36:57.319Z,10.77
2019-02-24T00:39:26.305Z,10.90
2019-02-24T00:41:55.186Z,11.27
2019-02-24T00:44:24.060Z,10.73
2019-02-24T00:46:52.842Z,10.67
2019-02-24T00:49:21.765Z,10.60
2019-02-24T00:51:50.554Z,11.17
2019-02-24T00:54:19.406Z,10.57
2019-02-24T00:56:48.226Z,10.40
2019-02-24T00:59:17.066Z,11.07
2019-02-24T01:01:45.881Z,10.03
2019-02-24T01:04:14.692Z,11.07
2019-02-24T01:06:43.572Z,11.30
2019-02-24T01:09:12.469Z,10.13
2019-02-24T01:11:41.257Z,10.20
2019-02-24T01:14:10.432Z,10.20
2019-02-24T01:16:39.291Z,10.57
2019-02-24T01:19:08.239Z,9.77
2019-02-24T01:21:36.991Z,10.30
2019-02-24T01:24:05.843Z,10.40
2019-02-24T01:26:34.653Z,10.80
2019-02-24T01:29:04.731Z,10.83
2019-02-24T01:31:33.634Z,10.90
2019-02-24T01:34:02.425Z,10.77
2019-02-24T01:36:31.293Z,10.50
2019-02-24T01:39:00.305Z,10.53
2019-02-24T01:41:29.192Z,10.80
2019-02-24T01:43:58.044Z,10.67
2019-02-24T01:46:26.902Z,10.53
2019-02-24T01:48:55.854Z,10.60
2019-02-24T01:51:24.675Z,10.23
2019-02-24T01:53:53.448Z,10.30
2019-02-24T01:56:22.337Z,10.00
2019-02-24T02:01:32.407Z,10.53
2019-02-24T02:04:01.268Z,10.17
2019-02-24T02:06:30.086Z,10.10
2019-02-24T02:08:58.957Z,10.40
2019-02-24T02:11:27.745Z,11.17
2019-02-24T02:13:56.631Z,9.73
2019-02-24T02:16:25.422Z,10.00
2019-02-24T02:18:54.275Z,10.63
2019-02-24T02:21:23.113Z,10.63
2019-02-24T02:23:51.991Z,10.43
2019-02-24T02:26:20.891Z,10.97
2019-02-24T02:28:49.848Z,10.37
2019-02-24T02:31:18.743Z,10.97
2019-02-24T02:33:47.578Z,9.30
2019-02-24T02:36:16.409Z,10.30
2019-02-24T02:38:46.239Z,10.67
2019-02-24T02:41:15.140Z,10.10
2019-02-24T02:43:44.064Z,10.27
2019-02-24T02:46:12.932Z,10.73
2019-02-24T02:48:41.830Z,10.97
2019-02-24T02:51:10.925Z,11.10
2019-02-24T02:53:39.710Z,10.97
2019-02-24T02:56:08.645Z,10.47
2019-02-24T02:58:37.641Z,10.60
2019-02-24T03:01:06.555Z,10.07
2019-02-24T03:03:35.394Z,10.63
2019-02-24T03:06:15.314Z,10.20
2019-02-24T03:08:48.707Z,10.33
2019-02-24T03:11:17.734Z,10.47
2019-02-24T03:13:46.573Z,10.93
2019-02-24T03:16:18.008Z,10.90
2019-02-24T03:18:46.928Z,10.40
2019-02-24T03:21:15.843Z,10.83
2019-02-24T03:23:44.651Z,10.73
2019-02-24T03:26:13.454Z,10.30
2019-02-24T03:28:42.253Z,10.20
2019-02-24T03:31:11.098Z,10.53
2019-02-24T03:33:39.955Z,11.47
2019-02-24T03:36:08.768Z,11.20
2019-02-24T03:38:38.655Z,11.33
2019-02-24T03:41:07.876Z,10.90
2019-02-24T03:43:36.727Z,10.63
2019-02-24T03:46:05.613Z,10.60
2019-02-24T03:48:34.722Z,10.67
2019-02-24T03:51:03.537Z,10.03
2019-02-24T03:53:32.419Z,10.83
2019-02-24T03:56:01.258Z,9.93
2019-02-24T03:58:30.369Z,10.37
2019-02-24T04:00:59.260Z,10.70
2019-02-24T04:03:28.134Z,11.03
2019-02-24T04:05:56.942Z,10.60
2019-02-24T04:08:26.040Z,9.90
2019-02-24T04:10:54.876Z,10.87
2019-02-24T04:13:23.752Z,11.47
2019-02-24T04:15:52.912Z,11.27
2019-02-24T04:18:23.778Z,9.97
2019-02-24T04:20:52.574Z,10.90
2019-02-24T04:23:21.439Z,10.30
2019-02-24T04:25:50.254Z,11.73
2019-02-24T04:28:19.212Z,11.23
2019-02-24T04:30:48.049Z,10.90
2019-02-24T04:33:16.805Z,10.90
2019-02-24T04:35:45.659Z,10.60
2019-02-24T04:38:16.091Z,11.43
2019-02-24T04:40:45.220Z,10.73
2019-02-24T04:43:14.077Z,10.57
2019-02-24T04:45:42.877Z,11.50
2019-02-24T04:48:11.878Z,10.60
2019-02-24T04:50:40.753Z,9.67
2019-02-24T04:53:09.536Z,11.20
2019-02-24T04:55:38.400Z,10.97
2019-02-24T04:58:07.286Z,11.57
2019-02-24T05:00:36.153Z,11.43
2019-02-24T05:03:04.975Z,10.67
2019-02-24T05:05:33.814Z,10.23
2019-02-24T05:08:02.612Z,10.73
2019-02-24T05:10:31.437Z,10.83
2019-02-24T05:13:00.241Z,10.60
2019-02-24T05:15:29.070Z,11.50
2019-02-24T05:17:57.823Z,11.33
2019-02-24T05:20:26.671Z,10.60
2019-02-24T05:22:55.487Z,10.33
2019-02-24T05:25:24.312Z,11.47
2019-02-24T05:27:53.089Z,10.30
2019-02-24T05:30:22.073Z,10.72
2019-02-24T05:32:50.877Z,10.83
2019-02-24T05:35:19.747Z,10.03
2019-02-24T05:37:48.546Z,10.30
2019-02-24T05:40:17.578Z,10.60
2019-02-24T05:42:46.371Z,11.03
2019-02-24T05:45:15.206Z,10.80
2019-02-24T05:47:43.999Z,10.70
2019-02-24T05:50:12.941Z,10.27
2019-02-24T05:52:41.778Z,10.70
2019-02-24T05:55:10.741Z,10.30
2019-02-24T05:57:39.592Z,10.80
2019-02-24T06:00:09.006Z,10.57
2019-02-24T06:02:37.858Z,10.63
2019-02-24T06:05:06.858Z,10.67
2019-02-24T06:07:35.768Z,10.67
2019-02-24T06:10:04.861Z,10.90
2019-02-24T06:12:33.840Z,11.07
2019-02-24T06:15:02.803Z,11.07
2019-02-24T06:17:31.691Z,10.13
2019-02-24T06:20:01.686Z,10.23
2019-02-24T06:22:30.583Z,10.97
2019-02-24T06:24:59.388Z,10.43
2019-02-24T06:27:28.203Z,10.07
2019-02-24T06:30:04.442Z,11.13
2019-02-24T06:32:27.795Z,10.60
2019-02-24T06:34:56.628Z,9.97
2019-02-24T06:37:25.437Z,10.17
2019-02-24T06:39:54.412Z,10.63
2019-02-24T06:42:23.268Z,10.53
2019-02-24T06:44:52.055Z,10.87
2019-02-24T06:47:20.876Z,9.97
2019-02-24T06:49:49.916Z,10.00
2019-02-24T06:52:23.171Z,11.27
2019-02-24T06:54:51.972Z,10.43
2019-02-24T06:57:20.779Z,10.37
2019-02-24T06:59:49.603Z,10.70
2019-02-24T07:02:18.459Z,10.47
2019-02-24T07:04:47.255Z,11.13
2019-02-24T07:07:16.073Z,11.50
2019-02-24T07:09:44.936Z,10.47
2019-02-24T07:12:13.756Z,10.67
2019-02-24T07:14:42.633Z,10.37
2019-02-24T07:17:11.434Z,10.40
2019-02-24T07:19:40.302Z,11.47
2019-02-24T07:22:09.178Z,10.63
2019-02-24T07:24:37.979Z,10.70
2019-02-24T07:27:06.758Z,11.47
2019-02-24T07:29:35.681Z,11.37
2019-02-24T07:32:04.882Z,10.93
2019-02-24T07:34:33.699Z,10.97
2019-02-24T07:37:02.724Z,10.67
2019-02-24T07:39:31.715Z,10.90
2019-02-24T07:42:00.586Z,11.20
2019-02-24T07:44:29.569Z,10.03
2019-02-24T07:46:58.410Z,10.87
2019-02-24T07:49:27.391Z,10.90
2019-02-24T07:51:56.266Z,11.40
2019-02-24T07:54:25.101Z,10.43
2019-02-24T07:56:53.947Z,10.43
2019-02-24T07:59:22.969Z,10.93
2019-02-24T08:01:51.761Z,10.57
2019-02-24T08:04:20.549Z,11.37
2019-02-24T08:06:49.406Z,10.93
2019-02-24T08:09:18.262Z,10.57
2019-02-24T08:11:47.142Z,10.47
2019-02-24T08:14:15.917Z,11.37
2019-02-24T08:16:44.722Z,10.07
2019-02-24T08:19:15.731Z,10.33
2019-02-24T08:21:44.598Z,11.23
2019-02-24T08:24:13.411Z,10.93
2019-02-24T08:26:42.271Z,10.43
2019-02-24T08:29:11.637Z,11.23
2019-02-24T08:31:40.478Z,10.83
2019-02-24T08:34:09.362Z,11.53
2019-02-24T08:36:38.138Z,10.53
2019-02-24T08:39:07.159Z,11.70
2019-02-24T08:41:36.026Z,11.03
2019-02-24T08:44:04.890Z,10.57
2019-02-24T08:46:33.699Z,11.57
2019-02-24T08:49:02.754Z,10.73
2019-02-24T08:51:31.572Z,11.30
2019-02-24T08:54:00.349Z,10.83
2019-02-24T08:56:29.158Z,10.63
2019-02-24T08:58:58.143Z,10.43
2019-02-24T09:01:26.950Z,10.57
2019-02-24T09:03:55.721Z,10.60
2019-02-24T09:06:24.536Z,11.30
2019-02-24T09:08:53.511Z,11.43
2019-02-24T09:11:22.287Z,10.43
2019-02-24T09:13:51.086Z,11.00
2019-02-24T09:16:19.933Z,10.57
2019-02-24T09:18:48.962Z,11.10
2019-02-24T09:21:17.835Z,10.23
2019-02-24T09:23:46.620Z,11.10
2019-02-24T09:26:17.288Z,11.00
2019-02-24T09:28:46.328Z,10.50
2019-02-24T09:33:56.686Z,10.57
2019-02-24T09:36:25.641Z,10.60
2019-02-24T09:38:54.550Z,10.17
2019-02-24T09:41:23.337Z,10.50
2019-02-24T09:43:52.106Z,10.27
2019-02-24T09:46:20.957Z,10.27
2019-02-24T09:48:49.873Z,10.30
2019-02-24T09:51:18.777Z,10.50
2019-02-24T09:53:47.537Z,10.13
2019-02-24T09:56:16.420Z,9.97
2019-02-24T09:58:46.273Z,10.43
2019-02-24T10:01:15.064Z,10.23
2019-02-24T10:03:43.960Z,9.53
2019-02-24T10:06:12.752Z,10.07
2019-02-24T10:08:44.884Z,9.43
2019-02-24T10:11:13.805Z,9.90
2019-02-24T10:13:42.694Z,9.63
2019-02-24T10:16:11.661Z,10.50
2019-02-24T10:18:40.527Z,9.70
2019-02-24T10:21:09.466Z,9.88
2019-02-24T10:23:38.435Z,9.83
2019-02-24T10:26:07.232Z,9.80
2019-02-24T10:28:36.207Z,10.37
2019-02-24T10:31:05.289Z,10.40
2019-02-24T10:33:34.160Z,10.57
2019-02-24T10:36:03.065Z,10.30
2019-02-24T10:38:32.087Z,10.23
2019-02-24T10:41:00.879Z,10.80
2019-02-24T10:43:29.661Z,9.77
2019-02-24T10:45:58.446Z,9.50
2019-02-24T10:48:27.328Z,10.27
2019-02-24T10:50:56.211Z,10.43
2019-02-24T10:53:25.009Z,10.20
2019-02-24T10:55:53.800Z,11.03
2019-02-24T10:58:22.702Z,9.13
2019-02-24T11:00:51.487Z,10.25
2019-02-24T11:03:20.245Z,10.27
2019-02-24T11:05:49.051Z,10.57
2019-02-24T11:08:18.177Z,10.20
2019-02-24T11:10:47.044Z,10.60
2019-02-24T11:13:15.866Z,10.07
2019-02-24T11:15:44.820Z,10.13
2019-02-24T11:18:13.897Z,9.43
2019-02-24T11:20:43.022Z,9.80
2019-02-24T11:23:11.828Z,9.70
2019-02-24T11:25:40.665Z,10.50
2019-02-24T11:28:09.675Z,9.60
2019-02-24T11:30:38.764Z,9.93
2019-02-24T11:33:07.644Z,9.77
2019-02-24T11:35:36.573Z,9.80
2019-02-24T11:38:05.922Z,9.20
2019-02-24T11:40:34.842Z,9.80
2019-02-24T11:43:03.629Z,9.47
2019-02-24T11:45:32.498Z,9.90
2019-02-24T11:48:02.550Z,9.40
2019-02-24T11:50:31.409Z,8.93
2019-02-24T11:53:00.228Z,8.90
2019-02-24T11:55:29.056Z,10.00
2019-02-24T11:57:57.814Z,9.00
2019-02-24T12:00:26.769Z,9.10
2019-02-24T12:02:55.650Z,8.70
2019-02-24T12:05:24.584Z,9.33
2019-02-24T12:07:53.500Z,9.50
2019-02-24T12:10:22.414Z,10.17
2019-02-24T12:12:51.230Z,9.80
2019-02-24T12:15:20.166Z,8.93
2019-02-24T12:17:48.946Z,9.30
2019-02-24T12:20:17.924Z,9.00
2019-02-24T12:22:46.716Z,11.13
2019-02-24T12:25:15.604Z,11.73
2019-02-24T12:27:44.493Z,11.50
2019-02-24T12:30:13.586Z,12.23
2019-02-24T12:32:42.391Z,12.63
2019-02-24T12:35:11.161Z,12.13
2019-02-24T12:37:40.160Z,12.17
2019-02-24T12:40:09.488Z,12.43
2019-02-24T12:42:38.328Z,12.53
2019-02-24T12:45:07.545Z,11.23
2019-02-24T12:47:36.402Z,11.90
2019-02-24T12:50:06.272Z,12.40
2019-02-24T12:52:35.099Z,12.00
2019-02-24T12:55:03.982Z,12.17
2019-02-24T12:57:32.832Z,11.77
2019-02-24T13:00:01.853Z,11.60
2019-02-24T13:02:30.720Z,11.63
2019-02-24T13:04:59.563Z,11.37
2019-02-24T13:07:28.370Z,11.70
2019-02-24T13:09:57.434Z,11.33
2019-02-24T13:12:26.365Z,10.60
2019-02-24T13:14:55.312Z,11.17
2019-02-24T13:17:24.240Z,11.27
2019-02-24T13:19:53.107Z,11.00
2019-02-24T13:22:21.904Z,11.03
2019-02-24T13:24:50.895Z,10.77
2019-02-24T13:27:19.810Z,10.03
2019-02-24T13:29:48.751Z,11.80
2019-02-24T13:32:17.544Z,11.73
2019-02-24T13:34:46.336Z,10.87
2019-02-24T13:37:15.198Z,12.20
2019-02-24T13:39:44.080Z,11.40
2019-02-24T13:42:13.019Z,11.53
2019-02-24T13:44:41.934Z,10.83
2019-02-24T13:47:10.818Z,10.00
2019-02-24T13:49:39.929Z,9.20
2019-02-24T13:52:09.024Z,8.40
2019-02-24T13:54:37.885Z,9.13
2019-02-24T13:57:06.870Z,8.40
2019-02-24T13:59:35.786Z,9.53
2019-02-24T14:02:04.721Z,8.87
2019-02-24T14:04:33.517Z,8.73
2019-02-24T14:07:02.417Z,8.77
2019-02-24T14:09:31.408Z,8.80
2019-02-24T14:12:00.255Z,8.77
2019-02-24T14:14:29.133Z,8.70
2019-02-24T14:16:57.955Z,8.27
2019-02-24T14:19:26.844Z,8.33
2019-02-24T14:21:55.700Z,8.87
2019-02-24T14:24:24.509Z,8.43
2019-02-24T14:26:54.190Z,9.10
2019-02-24T14:29:23.047Z,7.77
2019-02-24T14:31:51.944Z,8.03
2019-02-24T14:34:20.760Z,7.83
2019-02-24T14:36:49.630Z,7.90
2019-02-24T14:39:18.598Z,8.30
2019-02-24T14:41:47.388Z,8.13
2019-02-24T14:44:16.188Z,7.87
2019-02-24T14:46:45.076Z,7.97
2019-02-24T14:49:13.945Z,7.37
2019-02-24T14:51:42.762Z,8.33
2019-02-24T14:54:11.585Z,8.10
2019-02-24T14:56:40.484Z,8.10
2019-02-24T14:59:09.324Z,7.97
2019-02-24T15:01:38.106Z,8.00
2019-02-24T15:04:06.952Z,7.77
2019-02-24T15:06:35.748Z,8.37
2019-02-24T15:09:05.365Z,8.77
2019-02-24T15:11:34.163Z,8.13
2019-02-24T15:14:03.038Z,7.77
2019-02-24T15:16:31.848Z,8.67
2019-02-24T15:19:00.909Z,7.83
2019-02-24T15:21:29.713Z,7.77
2019-02-24T15:23:58.543Z,7.97
2019-02-24T15:26:29.238Z,7.70
2019-02-24T15:28:58.257Z,7.87
2019-02-24T15:31:27.142Z,9.10
2019-02-24T15:33:55.974Z,8.20
2019-02-24T15:36:24.870Z,7.90
2019-02-24T15:38:53.831Z,8.50
2019-02-24T15:41:29.582Z,8.77
2019-02-24T15:43:53.265Z,8.70
2019-02-24T15:46:22.093Z,8.43
2019-02-24T15:48:51.043Z,8.20
2019-02-24T15:51:19.886Z,7.90
2019-02-24T15:53:48.705Z,10.57
2019-02-24T15:56:17.705Z,9.73
2019-02-24T15:58:46.690Z,10.43
2019-02-24T16:01:15.467Z,10.07
2019-02-24T16:03:44.264Z,9.57
2019-02-24T16:06:13.158Z,10.27
2019-02-24T16:08:42.137Z,10.60
2019-02-24T16:11:10.941Z,9.70
2019-02-24T16:13:39.839Z,9.90
2019-02-24T16:16:08.876Z,10.47
2019-02-24T16:18:37.643Z,9.87
2019-02-24T16:21:06.495Z,9.60
2019-02-24T16:23:35.457Z,9.87
2019-02-24T16:26:04.269Z,9.03
2019-02-24T16:28:33.223Z,8.67
2019-02-24T16:31:02.021Z,8.67
2019-02-24T16:33:30.824Z,7.43
2019-02-24T16:35:59.630Z,7.70
2019-02-24T16:38:28.603Z,7.17
2019-02-24T16:40:57.502Z,7.30
2019-02-24T16:43:26.361Z,7.90
2019-02-24T16:45:55.162Z,7.00
2019-02-24T16:48:24.133Z,6.97
2019-02-24T16:50:52.985Z,6.87
2019-02-24T16:53:21.861Z,6.80
2019-02-24T16:55:50.681Z,6.57
2019-02-24T16:58:19.616Z,7.13
2019-02-24T17:00:48.454Z,7.60
2019-02-24T17:03:19.950Z,7.10
2019-02-24T17:05:48.019Z,7.23
2019-02-24T17:08:16.927Z,7.40
2019-02-24T17:10:45.707Z,6.63
2019-02-24T17:13:14.583Z,7.90
2019-02-24T17:15:43.401Z,9.30
2019-02-24T17:18:13.281Z,8.83
2019-02-24T17:20:42.158Z,7.97
2019-02-24T17:23:10.943Z,7.97
2019-02-24T17:25:39.755Z,8.77
2019-02-24T17:28:08.729Z,8.30
2019-02-24T17:30:37.938Z,8.20
2019-02-24T17:33:06.766Z,7.53
2019-02-24T17:35:35.570Z,6.87
2019-02-24T17:38:04.557Z,7.10
2019-02-24T17:40:33.387Z,7.33
2019-02-24T17:43:02.214Z,7.17
2019-02-24T17:45:30.983Z,7.77
2019-02-24T17:47:59.875Z,7.90
2019-02-24T17:50:28.663Z,7.80
2019-02-24T17:52:57.636Z,7.30
2019-02-24T17:55:26.576Z,8.10
2019-02-24T17:57:55.391Z,7.27
2019-02-24T18:00:30.008Z,7.42
2019-02-24T18:02:58.813Z,7.83
2019-02-24T18:05:27.629Z,7.40
2019-02-24T18:07:56.442Z,8.03
2019-02-24T18:10:25.400Z,8.87
2019-02-24T18:12:54.209Z,8.23
2019-02-24T18:15:23.163Z,8.17
2019-02-24T18:17:51.980Z,8.33
2019-02-24T18:20:20.998Z,7.73
2019-02-24T18:22:50.682Z,7.87
2019-02-24T18:25:19.555Z,7.83
2019-02-24T18:27:48.491Z,7.93
2019-02-24T18:30:19.776Z,7.57
2019-02-24T18:32:48.854Z,8.07
2019-02-24T18:35:17.795Z,8.83
2019-02-24T18:37:46.813Z,7.97
2019-02-24T18:40:16.650Z,8.50
2019-02-24T18:42:45.592Z,8.00
2019-02-24T18:45:14.976Z,8.80
2019-02-24T18:47:43.961Z,9.37
2019-02-24T18:50:13.059Z,8.80
2019-02-24T18:52:41.794Z,8.73
2019-02-24T18:55:10.945Z,8.27
2019-02-24T18:57:39.843Z,9.80
2019-02-24T19:00:12.221Z,10.72
2019-02-24T19:02:41.109Z,9.77
2019-02-24T19:05:10.024Z,10.50
2019-02-24T19:07:38.909Z,10.33
2019-02-24T19:10:09.755Z,10.43
2019-02-24T19:12:38.617Z,10.80
2019-02-24T19:15:09.440Z,11.13
2019-02-24T19:17:38.332Z,12.57
2019-02-24T19:20:08.397Z,10.87
2019-02-24T19:22:37.177Z,10.93
2019-02-24T19:25:06.673Z,12.97
2019-02-24T19:27:35.543Z,11.00
2019-02-24T19:30:05.138Z,10.40
2019-02-24T19:32:33.974Z,10.50
2019-02-24T19:35:02.739Z,10.33
2019-02-24T19:37:31.547Z,10.80
2019-02-24T19:40:00.516Z,11.03
2019-02-24T19:42:29.351Z,10.88
2019-02-24T19:44:58.164Z,11.13
2019-02-24T19:47:26.987Z,10.73
2019-02-24T19:49:55.894Z,11.37
2019-02-24T19:52:24.700Z,11.00
2019-02-24T19:54:53.543Z,11.70
2019-02-24T19:57:22.457Z,11.90
2019-02-24T19:59:51.416Z,11.67
2019-02-24T20:02:20.313Z,10.80
2019-02-24T20:04:49.209Z,11.03
2019-02-24T20:07:17.999Z,11.73
2019-02-24T20:09:46.958Z,11.63
2019-02-24T20:12:15.776Z,11.40
2019-02-24T20:14:44.547Z,11.23
2019-02-24T20:17:13.461Z,11.03
2019-02-24T20:19:42.464Z,11.23
2019-02-24T20:22:11.706Z,11.73
2019-02-24T20:24:40.631Z,11.97
2019-02-24T20:27:09.535Z,11.67
2019-02-24T20:29:38.536Z,12.30
2019-02-24T20:32:07.340Z,12.03
2019-02-24T20:34:36.214Z,13.27
2019-02-24T20:37:05.102Z,12.90
2019-02-24T20:39:34.037Z,12.73
2019-02-24T20:42:02.966Z,12.00
2019-02-24T20:44:31.867Z,12.33
2019-02-24T20:47:00.691Z,11.83
2019-02-24T20:49:29.661Z,11.40
2019-02-24T20:51:58.550Z,11.53
2019-02-24T20:54:27.440Z,11.33
2019-02-24T20:56:56.446Z,11.23
2019-02-24T20:59:25.710Z,11.40
2019-02-24T21:01:54.682Z,12.67
2019-02-24T21:04:23.616Z,12.17
2019-02-24T21:06:52.470Z,12.00
2019-02-24T21:09:21.467Z,11.50
2019-02-24T21:11:50.334Z,12.30
2019-02-24T21:14:19.358Z,14.80
2019-02-24T21:16:48.246Z,12.63
2019-02-24T21:19:17.156Z,12.33
2019-02-24T21:21:46.025Z,12.57
2019-02-24T21:24:14.822Z,12.70
2019-02-24T21:26:43.622Z,13.03
2019-02-24T21:29:12.459Z,12.00
2019-02-24T21:31:41.279Z,12.10
2019-02-24T21:34:10.103Z,12.67
2019-02-24T21:36:39.089Z,12.83
2019-02-24T21:39:09.248Z,12.13
2019-02-24T21:41:38.194Z,12.40
2019-02-24T21:44:07.007Z,12.83
2019-02-24T21:46:35.854Z,14.37
2019-02-24T21:49:05.114Z,13.70
2019-02-24T21:51:33.989Z,13.60
2019-02-24T21:54:02.830Z,13.63
2019-02-24T21:56:31.645Z,13.37
2019-02-24T21:59:01.637Z,13.03
2019-02-24T22:01:30.506Z,12.47
2019-02-24T22:03:59.334Z,12.70
2019-02-24T22:06:28.236Z,13.27
2019-02-24T22:08:57.208Z,12.70
2019-02-24T22:11:26.002Z,12.60
2019-02-24T22:13:54.867Z,13.17
2019-02-24T22:16:23.663Z,12.93
2019-02-24T22:18:54.680Z,12.43
2019-02-24T22:21:23.503Z,12.47
2019-02-24T22:23:52.328Z,13.13
2019-02-24T22:26:21.173Z,12.60
2019-02-24T22:28:51.183Z,12.57
2019-02-24T22:31:20.094Z,12.10
2019-02-24T22:33:48.944Z,12.90
2019-02-24T22:36:17.742Z,12.73
2019-02-24T22:38:47.809Z,12.23
2019-02-24T22:41:16.556Z,12.47
2019-02-24T22:43:45.318Z,12.13
2019-02-24T22:46:14.211Z,11.73
2019-02-24T22:48:43.249Z,12.30
2019-02-24T22:51:12.139Z,11.70
2019-02-24T22:53:40.885Z,11.53
2019-02-24T22:56:09.926Z,10.87
2019-02-24T22:58:39.000Z,10.70
2019-02-24T23:01:16.205Z,10.33
2019-02-24T23:03:46.939Z,9.70
2019-02-24T23:06:15.790Z,9.73
2019-02-24T23:08:44.944Z,10.33
2019-02-24T23:11:14.085Z,10.00
2019-02-24T23:13:42.876Z,10.97
2019-02-24T23:16:11.695Z,10.57
2019-02-24T23:18:40.763Z,10.40
2019-02-24T23:21:09.583Z,9.37
2019-02-24T23:23:38.363Z,10.13
2019-02-24T23:26:07.198Z,10.00
2019-02-24T23:28:36.202Z,9.83
2019-02-24T23:31:05.012Z,9.97
2019-02-24T23:33:33.912Z,9.13
2019-02-24T23:36:02.674Z,10.23
2019-02-24T23:38:31.562Z,10.47
2019-02-24T23:41:00.364Z,10.60
2019-02-24T23:43:30.632Z,9.77
2019-02-24T23:45:59.660Z,10.20
2019-02-24T23:48:28.568Z,9.77
2019-02-24T23:50:57.385Z,12.03
2019-02-24T23:53:26.250Z,10.73
2019-02-24T23:55:55.044Z,9.43
2019-02-24T23:58:23.902Z,10.53
